sensor_id;sensor_type;location;lat;lon;timestamp;temperature;humidity
50804;DHT22;37205;51.434;6.756;2024-01-15T00:01:45;1.40;99.90
50804;DHT22;37205;51.434;6.756;2024-01-15T00:04:17;1.40;99.90
50804;DHT22;37205;51.434;6.756;2024-01-15T00:06:43;1.40;99.90
50804;DHT22;37205;51.434;6.756;2024-01-15T00:09:09;1.40;99.90
50804;DHT22;37205;51.434;6.756;2024-01-15T00:11:35;1.40;99.90
50804;DHT22;37205;51.434;6.756;2024-01-15T00:14:00;1.40;99.90
50804;DHT22;37205;51.434;6.756;2024-01-15T00:16:26;1.40;99.90
50804;DHT22;37205;51.434;6.756;2024-01-15T00:18:52;1.40;99.90
50804;DHT22;37205;51.434;6.756;2024-01-15T00:21:17;1.40;99.90
50804;DHT22;37205;51.434;6.756;2024-01-15T00:23:43;1.50;99.90
50804;DHT22;37205;51.434;6.756;2024-01-15T00:26:12;1.50;99.90
50804;DHT22;37205;51.434;6.756;2024-01-15T00:28:38;1.50;99.90
50804;DHT22;37205;51.434;6.756;2024-01-15T00:31:07;1.60;99.90
50804;DHT22;37205;51.434;6.756;2024-01-15T00:33:32;1.60;99.90
50804;DHT22;37205;51.434;6.756;2024-01-15T00:35:58;1.60;99.90
50804;DHT22;37205;51.434;6.756;2024-01-15T00:38:24;1.60;99.90
50804;DHT22;37205;51.434;6.756;2024-01-15T00:40:50;1.60;99.90
50804;DHT22;37205;51.434;6.756;2024-01-15T00:43:15;1.50;99.90
50804;DHT22;37205;51.434;6.756;2024-01-15T00:45:43;1.60;99.90
50804;DHT22;37205;51.434;6.756;2024-01-15T00:48:09;1.60;99.90
50804;DHT22;37205;51.434;6.756;2024-01-15T00:50:34;1.50;99.90
50804;DHT22;37205;51.434;6.756;2024-01-15T00:53:00;1.60;99.90
50804;DHT22;37205;51.434;6.756;2024-01-15T00:55:26;1.60;99.90
50804;DHT22;37205;51.434;6.756;2024-01-15T00:57:52;1.50;99.90
50804;DHT22;37205;51.434;6.756;2024-01-15T01:00:17;1.60;99.90
50804;DHT22;37205;51.434;6.756;2024-01-15T01:02:43;1.60;99.90
50804;DHT22;37205;51.434;6.756;2024-01-15T01:05:08;1.60;99.90
50804;DHT22;37205;51.434;6.756;2024-01-15T01:07:34;1.60;99.90
50804;DHT22;37205;51.434;6.756;2024-01-15T01:10:00;1.70;99.90
50804;DHT22;37205;51.434;6.756;2024-01-15T01:12:25;1.60;99.90
50804;DHT22;37205;51.434;6.756;2024-01-15T01:14:51;1.60;99.90
50804;DHT22;37205;51.434;6.756;2024-01-15T01:17:16;1.60;99.90
50804;DHT22;37205;51.434;6.756;2024-01-15T01:19:42;1.60;99.90
50804;DHT22;37205;51.434;6.756;2024-01-15T01:22:07;1.60;99.90
50804;DHT22;37205;51.434;6.756;2024-01-15T01:24:33;1.60;99.90
50804;DHT22;37205;51.434;6.756;2024-01-15T01:26:58;1.60;99.90
50804;DHT22;37205;51.434;6.756;2024-01-15T01:29:26;1.60;99.90
50804;DHT22;37205;51.434;6.756;2024-01-15T01:31:52;1.60;99.90
50804;DHT22;37205;51.434;6.756;2024-01-15T01:34:21;1.60;99.90
50804;DHT22;37205;51.434;6.756;2024-01-15T01:36:46;1.60;99.90
50804;DHT22;37205;51.434;6.756;2024-01-15T01:39:12;1.70;99.90
50804;DHT22;37205;51.434;6.756;2024-01-15T01:41:38;1.70;99.90
50804;DHT22;37205;51.434;6.756;2024-01-15T01:44:06;1.60;99.90
50804;DHT22;37205;51.434;6.756;2024-01-15T01:46:33;1.60;99.90
50804;DHT22;37205;51.434;6.756;2024-01-15T01:48:59;1.60;99.90
50804;DHT22;37205;51.434;6.756;2024-01-15T01:51:31;1.60;99.90
50804;DHT22;37205;51.434;6.756;2024-01-15T01:53:56;1.70;99.90
50804;DHT22;37205;51.434;6.756;2024-01-15T01:56:22;1.70;99.90
50804;DHT22;37205;51.434;6.756;2024-01-15T01:58:48;1.70;99.90
50804;DHT22;37205;51.434;6.756;2024-01-15T02:01:15;1.70;99.90
50804;DHT22;37205;51.434;6.756;2024-01-15T02:03:41;1.70;99.90
50804;DHT22;37205;51.434;6.756;2024-01-15T02:06:07;1.70;99.90
50804;DHT22;37205;51.434;6.756;2024-01-15T02:08:33;1.70;99.90
50804;DHT22;37205;51.434;6.756;2024-01-15T02:11:00;1.70;99.90
50804;DHT22;37205;51.434;6.756;2024-01-15T02:13:25;1.70;99.90
50804;DHT22;37205;51.434;6.756;2024-01-15T02:15:51;1.70;99.90
50804;DHT22;37205;51.434;6.756;2024-01-15T02:18:17;1.70;99.90
50804;DHT22;37205;51.434;6.756;2024-01-15T02:20:42;1.70;99.90
50804;DHT22;37205;51.434;6.756;2024-01-15T02:23:15;1.80;99.90
50804;DHT22;37205;51.434;6.756;2024-01-15T02:25:42;1.70;99.90
50804;DHT22;37205;51.434;6.756;2024-01-15T02:28:14;1.80;99.90
50804;DHT22;37205;51.434;6.756;2024-01-15T02:30:41;1.80;99.90
50804;DHT22;37205;51.434;6.756;2024-01-15T02:33:07;1.80;99.90
50804;DHT22;37205;51.434;6.756;2024-01-15T02:35:34;1.80;99.90
50804;DHT22;37205;51.434;6.756;2024-01-15T02:38:02;1.80;99.90
50804;DHT22;37205;51.434;6.756;2024-01-15T02:40:28;1.80;99.90
50804;DHT22;37205;51.434;6.756;2024-01-15T02:42:53;1.80;99.90
50804;DHT22;37205;51.434;6.756;2024-01-15T02:45:19;1.80;99.90
50804;DHT22;37205;51.434;6.756;2024-01-15T02:47:45;1.80;99.90
50804;DHT22;37205;51.434;6.756;2024-01-15T02:50:11;1.80;99.90
50804;DHT22;37205;51.434;6.756;2024-01-15T02:52:36;1.80;99.90
50804;DHT22;37205;51.434;6.756;2024-01-15T02:55:02;1.80;99.90
50804;DHT22;37205;51.434;6.756;2024-01-15T02:57:27;1.80;99.90
50804;DHT22;37205;51.434;6.756;2024-01-15T02:59:53;1.80;99.90
50804;DHT22;37205;51.434;6.756;2024-01-15T03:02:18;1.80;99.90
50804;DHT22;37205;51.434;6.756;2024-01-15T03:04:44;1.80;99.90
50804;DHT22;37205;51.434;6.756;2024-01-15T03:07:10;1.80;99.90
50804;DHT22;37205;51.434;6.756;2024-01-15T03:09:35;1.80;99.90
50804;DHT22;37205;51.434;6.756;2024-01-15T03:12:01;1.80;99.90
50804;DHT22;37205;51.434;6.756;2024-01-15T03:14:26;1.80;99.90
50804;DHT22;37205;51.434;6.756;2024-01-15T03:16:53;1.70;99.90
50804;DHT22;37205;51.434;6.756;2024-01-15T03:19:18;1.70;99.90
50804;DHT22;37205;51.434;6.756;2024-01-15T03:21:44;1.70;99.90
50804;DHT22;37205;51.434;6.756;2024-01-15T03:24:09;1.70;99.90
50804;DHT22;37205;51.434;6.756;2024-01-15T03:26:35;1.70;99.90
50804;DHT22;37205;51.434;6.756;2024-01-15T03:29:01;1.70;99.90
50804;DHT22;37205;51.434;6.756;2024-01-15T03:31:26;1.70;99.90
50804;DHT22;37205;51.434;6.756;2024-01-15T03:33:52;1.80;99.90
50804;DHT22;37205;51.434;6.756;2024-01-15T03:36:17;1.70;99.90
50804;DHT22;37205;51.434;6.756;2024-01-15T03:38:43;1.70;99.90
50804;DHT22;37205;51.434;6.756;2024-01-15T03:41:08;1.70;99.90
50804;DHT22;37205;51.434;6.756;2024-01-15T03:43:34;1.80;99.90
50804;DHT22;37205;51.434;6.756;2024-01-15T03:46:00;1.80;99.90
50804;DHT22;37205;51.434;6.756;2024-01-15T03:48:25;1.80;99.90
50804;DHT22;37205;51.434;6.756;2024-01-15T03:50:50;1.80;99.90
50804;DHT22;37205;51.434;6.756;2024-01-15T03:53:16;1.80;99.90
50804;DHT22;37205;51.434;6.756;2024-01-15T03:55:42;1.90;99.90
50804;DHT22;37205;51.434;6.756;2024-01-15T03:58:07;1.90;99.90
50804;DHT22;37205;51.434;6.756;2024-01-15T04:00:33;1.80;99.90
50804;DHT22;37205;51.434;6.756;2024-01-15T04:02:59;1.80;99.90
50804;DHT22;37205;51.434;6.756;2024-01-15T04:05:25;1.80;99.90
50804;DHT22;37205;51.434;6.756;2024-01-15T04:07:51;1.80;99.90
50804;DHT22;37205;51.434;6.756;2024-01-15T04:10:16;1.70;99.90
50804;DHT22;37205;51.434;6.756;2024-01-15T04:12:42;1.70;99.90
50804;DHT22;37205;51.434;6.756;2024-01-15T04:15:08;1.70;99.90
50804;DHT22;37205;51.434;6.756;2024-01-15T04:17:33;1.70;99.90
50804;DHT22;37205;51.434;6.756;2024-01-15T04:19:59;1.70;99.90
50804;DHT22;37205;51.434;6.756;2024-01-15T04:22:26;1.70;99.90
50804;DHT22;37205;51.434;6.756;2024-01-15T04:24:51;1.70;99.90
50804;DHT22;37205;51.434;6.756;2024-01-15T04:27:17;1.70;99.90
50804;DHT22;37205;51.434;6.756;2024-01-15T04:29:42;1.70;99.90
50804;DHT22;37205;51.434;6.756;2024-01-15T04:32:09;1.60;99.90
50804;DHT22;37205;51.434;6.756;2024-01-15T04:34:35;1.60;99.90
50804;DHT22;37205;51.434;6.756;2024-01-15T04:37:00;1.60;99.90
50804;DHT22;37205;51.434;6.756;2024-01-15T04:39:26;1.60;99.90
50804;DHT22;37205;51.434;6.756;2024-01-15T04:41:51;1.60;99.90
50804;DHT22;37205;51.434;6.756;2024-01-15T04:44:18;1.60;99.90
50804;DHT22;37205;51.434;6.756;2024-01-15T04:46:44;1.60;99.90
50804;DHT22;37205;51.434;6.756;2024-01-15T04:49:10;1.70;99.90
50804;DHT22;37205;51.434;6.756;2024-01-15T04:51:36;1.70;99.90
50804;DHT22;37205;51.434;6.756;2024-01-15T04:54:01;1.70;99.90
50804;DHT22;37205;51.434;6.756;2024-01-15T04:56:27;1.70;99.90
50804;DHT22;37205;51.434;6.756;2024-01-15T04:58:52;1.70;99.90
50804;DHT22;37205;51.434;6.756;2024-01-15T05:01:18;1.70;99.90
50804;DHT22;37205;51.434;6.756;2024-01-15T05:03:44;1.60;99.90
50804;DHT22;37205;51.434;6.756;2024-01-15T05:06:09;1.60;99.90
50804;DHT22;37205;51.434;6.756;2024-01-15T05:08:35;1.70;99.90
50804;DHT22;37205;51.434;6.756;2024-01-15T05:11:00;1.60;99.90
50804;DHT22;37205;51.434;6.756;2024-01-15T05:13:26;1.60;99.90
50804;DHT22;37205;51.434;6.756;2024-01-15T05:15:52;1.60;99.90
50804;DHT22;37205;51.434;6.756;2024-01-15T05:18:17;1.60;99.90
50804;DHT22;37205;51.434;6.756;2024-01-15T05:20:43;1.70;99.90
50804;DHT22;37205;51.434;6.756;2024-01-15T05:23:08;1.70;99.90
50804;DHT22;37205;51.434;6.756;2024-01-15T05:25:34;1.70;99.90
50804;DHT22;37205;51.434;6.756;2024-01-15T05:28:00;1.70;99.90
50804;DHT22;37205;51.434;6.756;2024-01-15T05:30:25;1.70;99.90
50804;DHT22;37205;51.434;6.756;2024-01-15T05:32:51;1.70;99.90
50804;DHT22;37205;51.434;6.756;2024-01-15T05:35:16;1.70;99.90
50804;DHT22;37205;51.434;6.756;2024-01-15T05:37:44;1.80;99.90
50804;DHT22;37205;51.434;6.756;2024-01-15T05:40:11;2.10;99.90
50804;DHT22;37205;51.434;6.756;2024-01-15T05:42:38;2.00;99.90
50804;DHT22;37205;51.434;6.756;2024-01-15T05:45:03;2.00;99.90
50804;DHT22;37205;51.434;6.756;2024-01-15T05:47:30;1.90;99.90
50804;DHT22;37205;51.434;6.756;2024-01-15T05:49:56;1.90;99.90
50804;DHT22;37205;51.434;6.756;2024-01-15T05:52:22;1.90;99.90
50804;DHT22;37205;51.434;6.756;2024-01-15T05:54:48;1.90;99.90
50804;DHT22;37205;51.434;6.756;2024-01-15T05:57:14;1.90;99.90
50804;DHT22;37205;51.434;6.756;2024-01-15T05:59:40;1.90;99.90
50804;DHT22;37205;51.434;6.756;2024-01-15T06:02:05;1.90;99.90
50804;DHT22;37205;51.434;6.756;2024-01-15T06:04:31;2.00;99.90
50804;DHT22;37205;51.434;6.756;2024-01-15T06:06:56;1.90;99.90
50804;DHT22;37205;51.434;6.756;2024-01-15T06:09:22;1.90;99.90
50804;DHT22;37205;51.434;6.756;2024-01-15T06:11:47;1.90;99.90
50804;DHT22;37205;51.434;6.756;2024-01-15T06:14:13;1.90;99.90
50804;DHT22;37205;51.434;6.756;2024-01-15T06:16:38;1.90;99.90
50804;DHT22;37205;51.434;6.756;2024-01-15T06:19:04;2.00;99.90
50804;DHT22;37205;51.434;6.756;2024-01-15T06:21:29;2.00;99.90
50804;DHT22;37205;51.434;6.756;2024-01-15T06:23:55;2.00;99.90
50804;DHT22;37205;51.434;6.756;2024-01-15T06:26:22;2.00;99.90
50804;DHT22;37205;51.434;6.756;2024-01-15T06:28:48;2.00;99.90
50804;DHT22;37205;51.434;6.756;2024-01-15T06:31:13;2.00;99.90
50804;DHT22;37205;51.434;6.756;2024-01-15T06:33:39;2.00;99.90
50804;DHT22;37205;51.434;6.756;2024-01-15T06:36:05;2.00;99.90
50804;DHT22;37205;51.434;6.756;2024-01-15T06:38:31;2.10;99.90
50804;DHT22;37205;51.434;6.756;2024-01-15T06:40:56;2.00;99.90
50804;DHT22;37205;51.434;6.756;2024-01-15T06:43:22;2.00;99.90
50804;DHT22;37205;51.434;6.756;2024-01-15T06:45:47;2.00;99.90
50804;DHT22;37205;51.434;6.756;2024-01-15T06:48:13;2.00;99.90
50804;DHT22;37205;51.434;6.756;2024-01-15T06:50:42;2.00;99.90
50804;DHT22;37205;51.434;6.756;2024-01-15T06:53:07;2.00;99.90
50804;DHT22;37205;51.434;6.756;2024-01-15T06:55:33;2.00;99.90
50804;DHT22;37205;51.434;6.756;2024-01-15T06:57:58;2.00;99.90
50804;DHT22;37205;51.434;6.756;2024-01-15T07:00:24;2.00;99.90
50804;DHT22;37205;51.434;6.756;2024-01-15T07:02:59;2.00;99.90
50804;DHT22;37205;51.434;6.756;2024-01-15T07:05:24;1.90;99.90
50804;DHT22;37205;51.434;6.756;2024-01-15T07:07:50;1.90;99.90
50804;DHT22;37205;51.434;6.756;2024-01-15T07:10:15;1.90;99.90
50804;DHT22;37205;51.434;6.756;2024-01-15T07:12:44;1.90;99.90
50804;DHT22;37205;51.434;6.756;2024-01-15T07:15:10;1.90;99.90
50804;DHT22;37205;51.434;6.756;2024-01-15T07:17:36;1.90;99.90
50804;DHT22;37205;51.434;6.756;2024-01-15T07:20:06;1.90;99.90
50804;DHT22;37205;51.434;6.756;2024-01-15T07:22:33;1.90;99.90
50804;DHT22;37205;51.434;6.756;2024-01-15T07:24:58;1.80;99.90
50804;DHT22;37205;51.434;6.756;2024-01-15T07:27:24;1.90;99.90
50804;DHT22;37205;51.434;6.756;2024-01-15T07:29:49;1.90;99.90
50804;DHT22;37205;51.434;6.756;2024-01-15T07:32:15;1.80;99.90
50804;DHT22;37205;51.434;6.756;2024-01-15T07:34:41;1.90;99.90
50804;DHT22;37205;51.434;6.756;2024-01-15T07:37:06;1.80;99.90
50804;DHT22;37205;51.434;6.756;2024-01-15T07:39:32;1.80;99.90
50804;DHT22;37205;51.434;6.756;2024-01-15T07:41:58;1.80;99.90
50804;DHT22;37205;51.434;6.756;2024-01-15T07:44:23;1.80;99.90
50804;DHT22;37205;51.434;6.756;2024-01-15T07:46:49;1.80;99.90
50804;DHT22;37205;51.434;6.756;2024-01-15T07:49:14;1.80;99.90
50804;DHT22;37205;51.434;6.756;2024-01-15T07:51:40;1.70;99.90
50804;DHT22;37205;51.434;6.756;2024-01-15T07:54:06;1.70;99.90
50804;DHT22;37205;51.434;6.756;2024-01-15T07:56:32;1.70;99.90
50804;DHT22;37205;51.434;6.756;2024-01-15T07:58:58;1.70;99.90
50804;DHT22;37205;51.434;6.756;2024-01-15T08:01:24;1.60;99.90
50804;DHT22;37205;51.434;6.756;2024-01-15T08:03:49;1.60;99.90
50804;DHT22;37205;51.434;6.756;2024-01-15T08:06:15;1.70;99.90
50804;DHT22;37205;51.434;6.756;2024-01-15T08:08:41;1.60;99.90
50804;DHT22;37205;51.434;6.756;2024-01-15T08:11:06;1.60;99.90
50804;DHT22;37205;51.434;6.756;2024-01-15T08:13:32;1.60;99.90
50804;DHT22;37205;51.434;6.756;2024-01-15T08:15:57;1.60;99.90
50804;DHT22;37205;51.434;6.756;2024-01-15T08:18:23;1.60;99.90
50804;DHT22;37205;51.434;6.756;2024-01-15T08:20:49;1.60;99.90
50804;DHT22;37205;51.434;6.756;2024-01-15T08:23:16;1.60;99.90
50804;DHT22;37205;51.434;6.756;2024-01-15T08:25:42;1.60;99.90
50804;DHT22;37205;51.434;6.756;2024-01-15T08:28:07;1.60;99.90
50804;DHT22;37205;51.434;6.756;2024-01-15T08:30:33;1.60;99.90
50804;DHT22;37205;51.434;6.756;2024-01-15T08:33:00;1.60;99.90
50804;DHT22;37205;51.434;6.756;2024-01-15T08:35:25;1.60;99.90
50804;DHT22;37205;51.434;6.756;2024-01-15T08:37:52;1.60;99.90
50804;DHT22;37205;51.434;6.756;2024-01-15T08:40:18;1.60;99.90
50804;DHT22;37205;51.434;6.756;2024-01-15T08:42:44;1.60;99.90
50804;DHT22;37205;51.434;6.756;2024-01-15T08:45:11;1.60;99.90
50804;DHT22;37205;51.434;6.756;2024-01-15T08:47:36;1.50;99.90
50804;DHT22;37205;51.434;6.756;2024-01-15T08:50:02;1.50;99.90
50804;DHT22;37205;51.434;6.756;2024-01-15T08:52:29;1.50;99.90
50804;DHT22;37205;51.434;6.756;2024-01-15T08:54:56;1.50;99.90
50804;DHT22;37205;51.434;6.756;2024-01-15T08:57:21;1.40;99.90
50804;DHT22;37205;51.434;6.756;2024-01-15T08:59:47;1.40;99.90
50804;DHT22;37205;51.434;6.756;2024-01-15T09:02:13;1.30;99.90
50804;DHT22;37205;51.434;6.756;2024-01-15T09:04:38;1.30;99.90
50804;DHT22;37205;51.434;6.756;2024-01-15T09:07:04;1.20;99.90
50804;DHT22;37205;51.434;6.756;2024-01-15T09:09:30;1.20;99.90
50804;DHT22;37205;51.434;6.756;2024-01-15T09:11:55;1.20;99.90
50804;DHT22;37205;51.434;6.756;2024-01-15T09:14:21;1.20;99.90
50804;DHT22;37205;51.434;6.756;2024-01-15T09:16:47;1.20;99.90
50804;DHT22;37205;51.434;6.756;2024-01-15T09:19:13;1.30;99.90
50804;DHT22;37205;51.434;6.756;2024-01-15T09:21:39;1.30;99.90
50804;DHT22;37205;51.434;6.756;2024-01-15T09:24:05;1.30;99.90
50804;DHT22;37205;51.434;6.756;2024-01-15T09:26:31;1.40;99.90
50804;DHT22;37205;51.434;6.756;2024-01-15T09:28:57;1.40;99.90
50804;DHT22;37205;51.434;6.756;2024-01-15T09:31:23;1.40;99.90
50804;DHT22;37205;51.434;6.756;2024-01-15T09:33:49;1.50;99.90
50804;DHT22;37205;51.434;6.756;2024-01-15T09:36:16;1.50;99.90
50804;DHT22;37205;51.434;6.756;2024-01-15T09:38:42;1.50;99.90
50804;DHT22;37205;51.434;6.756;2024-01-15T09:41:08;1.50;99.90
50804;DHT22;37205;51.434;6.756;2024-01-15T09:43:33;1.60;99.90
50804;DHT22;37205;51.434;6.756;2024-01-15T09:45:59;1.50;99.90
50804;DHT22;37205;51.434;6.756;2024-01-15T09:48:25;1.60;99.90
50804;DHT22;37205;51.434;6.756;2024-01-15T09:50:50;1.60;99.90
50804;DHT22;37205;51.434;6.756;2024-01-15T09:53:17;1.60;99.90
50804;DHT22;37205;51.434;6.756;2024-01-15T09:55:43;1.60;99.90
50804;DHT22;37205;51.434;6.756;2024-01-15T09:58:10;1.70;99.90
50804;DHT22;37205;51.434;6.756;2024-01-15T10:00:36;1.60;99.90
50804;DHT22;37205;51.434;6.756;2024-01-15T10:03:05;1.70;99.90
50804;DHT22;37205;51.434;6.756;2024-01-15T10:05:32;1.70;99.90
50804;DHT22;37205;51.434;6.756;2024-01-15T10:07:58;1.70;99.90
50804;DHT22;37205;51.434;6.756;2024-01-15T10:10:25;1.70;99.90
50804;DHT22;37205;51.434;6.756;2024-01-15T10:12:51;1.70;99.90
50804;DHT22;37205;51.434;6.756;2024-01-15T10:15:16;1.70;99.90
50804;DHT22;37205;51.434;6.756;2024-01-15T10:17:42;1.70;99.90
50804;DHT22;37205;51.434;6.756;2024-01-15T10:20:11;1.70;99.90
50804;DHT22;37205;51.434;6.756;2024-01-15T10:22:44;1.70;99.90
50804;DHT22;37205;51.434;6.756;2024-01-15T10:25:12;1.80;99.90
50804;DHT22;37205;51.434;6.756;2024-01-15T10:27:38;1.70;99.90
50804;DHT22;37205;51.434;6.756;2024-01-15T10:30:05;1.80;99.90
50804;DHT22;37205;51.434;6.756;2024-01-15T10:32:31;1.80;99.90
50804;DHT22;37205;51.434;6.756;2024-01-15T10:34:57;1.80;99.90
50804;DHT22;37205;51.434;6.756;2024-01-15T10:37:24;1.80;99.90
50804;DHT22;37205;51.434;6.756;2024-01-15T10:39:50;1.80;99.90
50804;DHT22;37205;51.434;6.756;2024-01-15T10:42:16;1.80;99.90
50804;DHT22;37205;51.434;6.756;2024-01-15T10:44:43;1.80;99.90
50804;DHT22;37205;51.434;6.756;2024-01-15T10:47:09;1.80;99.90
50804;DHT22;37205;51.434;6.756;2024-01-15T10:49:34;1.80;99.90
50804;DHT22;37205;51.434;6.756;2024-01-15T10:52:01;1.80;99.90
50804;DHT22;37205;51.434;6.756;2024-01-15T10:54:27;1.90;99.90
50804;DHT22;37205;51.434;6.756;2024-01-15T10:56:53;1.80;99.90
50804;DHT22;37205;51.434;6.756;2024-01-15T10:59:21;1.80;99.90
50804;DHT22;37205;51.434;6.756;2024-01-15T11:01:49;1.80;99.90
50804;DHT22;37205;51.434;6.756;2024-01-15T11:04:15;1.70;99.90
50804;DHT22;37205;51.434;6.756;2024-01-15T11:06:46;1.70;99.90
50804;DHT22;37205;51.434;6.756;2024-01-15T11:09:12;1.80;99.90
50804;DHT22;37205;51.434;6.756;2024-01-15T11:11:44;1.80;99.90
50804;DHT22;37205;51.434;6.756;2024-01-15T11:14:10;2.00;99.90
50804;DHT22;37205;51.434;6.756;2024-01-15T11:17:08;2.10;99.90
50804;DHT22;37205;51.434;6.756;2024-01-15T11:19:38;2.10;99.90
50804;DHT22;37205;51.434;6.756;2024-01-15T11:24:54;2.10;99.90
50804;DHT22;37205;51.434;6.756;2024-01-15T11:27:40;2.20;99.90
50804;DHT22;37205;51.434;6.756;2024-01-15T11:30:10;2.20;99.90
50804;DHT22;37205;51.434;6.756;2024-01-15T11:32:36;2.20;99.90
50804;DHT22;37205;51.434;6.756;2024-01-15T11:35:02;2.20;99.90
50804;DHT22;37205;51.434;6.756;2024-01-15T11:37:56;2.20;99.90
50804;DHT22;37205;51.434;6.756;2024-01-15T11:40:18;2.20;99.90
50804;DHT22;37205;51.434;6.756;2024-01-15T11:42:45;2.20;99.90
50804;DHT22;37205;51.434;6.756;2024-01-15T11:45:10;2.20;99.90
50804;DHT22;37205;51.434;6.756;2024-01-15T11:50:24;2.10;99.90
50804;DHT22;37205;51.434;6.756;2024-01-15T11:52:59;2.10;99.90
50804;DHT22;37205;51.434;6.756;2024-01-15T11:55:35;2.10;99.90
50804;DHT22;37205;51.434;6.756;2024-01-15T11:58:08;2.20;99.90
50804;DHT22;37205;51.434;6.756;2024-01-15T12:00:45;2.20;99.90
50804;DHT22;37205;51.434;6.756;2024-01-15T12:03:12;2.20;99.90
50804;DHT22;37205;51.434;6.756;2024-01-15T12:05:38;2.20;99.90
50804;DHT22;37205;51.434;6.756;2024-01-15T12:08:04;2.20;99.90
50804;DHT22;37205;51.434;6.756;2024-01-15T12:10:36;2.30;99.90
50804;DHT22;37205;51.434;6.756;2024-01-15T12:13:10;2.30;99.90
50804;DHT22;37205;51.434;6.756;2024-01-15T12:15:36;2.40;99.90
50804;DHT22;37205;51.434;6.756;2024-01-15T12:18:02;2.40;99.90
50804;DHT22;37205;51.434;6.756;2024-01-15T12:20:32;2.50;99.90
50804;DHT22;37205;51.434;6.756;2024-01-15T12:22:58;2.60;99.90
50804;DHT22;37205;51.434;6.756;2024-01-15T12:25:24;2.70;99.90
50804;DHT22;37205;51.434;6.756;2024-01-15T12:27:52;2.80;99.90
50804;DHT22;37205;51.434;6.756;2024-01-15T12:30:18;2.80;99.90
50804;DHT22;37205;51.434;6.756;2024-01-15T12:32:44;2.80;99.90
50804;DHT22;37205;51.434;6.756;2024-01-15T12:35:10;2.80;99.90
50804;DHT22;37205;51.434;6.756;2024-01-15T12:37:37;2.90;99.90
50804;DHT22;37205;51.434;6.756;2024-01-15T12:40:07;2.90;99.90
50804;DHT22;37205;51.434;6.756;2024-01-15T12:42:36;2.90;99.90
50804;DHT22;37205;51.434;6.756;2024-01-15T12:45:02;2.90;99.90
50804;DHT22;37205;51.434;6.756;2024-01-15T12:47:30;2.90;99.90
50804;DHT22;37205;51.434;6.756;2024-01-15T12:49:56;2.80;99.90
50804;DHT22;37205;51.434;6.756;2024-01-15T12:52:23;2.80;99.90
50804;DHT22;37205;51.434;6.756;2024-01-15T12:54:49;2.80;99.90
50804;DHT22;37205;51.434;6.756;2024-01-15T12:57:16;2.80;99.90
50804;DHT22;37205;51.434;6.756;2024-01-15T12:59:43;2.70;99.90
50804;DHT22;37205;51.434;6.756;2024-01-15T13:02:09;2.60;99.90
50804;DHT22;37205;51.434;6.756;2024-01-15T13:04:35;2.60;99.90
50804;DHT22;37205;51.434;6.756;2024-01-15T13:07:01;2.70;99.90
50804;DHT22;37205;51.434;6.756;2024-01-15T13:09:26;2.70;99.90
50804;DHT22;37205;51.434;6.756;2024-01-15T13:11:52;2.70;99.90
50804;DHT22;37205;51.434;6.756;2024-01-15T13:14:18;2.70;99.90
50804;DHT22;37205;51.434;6.756;2024-01-15T13:16:43;2.60;99.90
50804;DHT22;37205;51.434;6.756;2024-01-15T13:19:09;2.70;99.90
50804;DHT22;37205;51.434;6.756;2024-01-15T13:21:37;2.60;99.90
50804;DHT22;37205;51.434;6.756;2024-01-15T13:24:02;2.60;99.90
50804;DHT22;37205;51.434;6.756;2024-01-15T13:26:31;2.60;99.90
50804;DHT22;37205;51.434;6.756;2024-01-15T13:28:57;2.60;99.90
50804;DHT22;37205;51.434;6.756;2024-01-15T13:31:22;2.60;99.90
50804;DHT22;37205;51.434;6.756;2024-01-15T13:33:48;2.60;99.90
50804;DHT22;37205;51.434;6.756;2024-01-15T13:36:13;2.60;99.90
50804;DHT22;37205;51.434;6.756;2024-01-15T13:38:39;2.60;99.90
50804;DHT22;37205;51.434;6.756;2024-01-15T13:41:05;2.60;99.90
50804;DHT22;37205;51.434;6.756;2024-01-15T13:43:31;2.60;99.90
50804;DHT22;37205;51.434;6.756;2024-01-15T13:45:57;2.60;99.90
50804;DHT22;37205;51.434;6.756;2024-01-15T13:48:23;2.60;99.90
50804;DHT22;37205;51.434;6.756;2024-01-15T13:50:48;2.60;99.90
50804;DHT22;37205;51.434;6.756;2024-01-15T13:53:16;2.70;99.90
50804;DHT22;37205;51.434;6.756;2024-01-15T13:55:41;2.70;99.90
50804;DHT22;37205;51.434;6.756;2024-01-15T13:58:07;2.70;99.90
50804;DHT22;37205;51.434;6.756;2024-01-15T14:00:32;2.60;99.90
50804;DHT22;37205;51.434;6.756;2024-01-15T14:02:58;2.60;99.90
50804;DHT22;37205;51.434;6.756;2024-01-15T14:05:24;2.50;99.90
50804;DHT22;37205;51.434;6.756;2024-01-15T14:07:49;2.40;99.90
50804;DHT22;37205;51.434;6.756;2024-01-15T14:10:15;2.40;99.90
50804;DHT22;37205;51.434;6.756;2024-01-15T14:12:41;2.40;99.90
50804;DHT22;37205;51.434;6.756;2024-01-15T14:15:07;2.40;99.90
50804;DHT22;37205;51.434;6.756;2024-01-15T14:17:33;2.40;99.90
50804;DHT22;37205;51.434;6.756;2024-01-15T14:19:58;2.40;99.90
50804;DHT22;37205;51.434;6.756;2024-01-15T14:22:24;2.40;99.90
50804;DHT22;37205;51.434;6.756;2024-01-15T14:24:50;2.40;99.90
50804;DHT22;37205;51.434;6.756;2024-01-15T14:27:16;2.40;99.90
50804;DHT22;37205;51.434;6.756;2024-01-15T14:29:42;2.40;99.90
50804;DHT22;37205;51.434;6.756;2024-01-15T14:32:07;2.40;99.90
50804;DHT22;37205;51.434;6.756;2024-01-15T14:34:33;2.40;99.90
50804;DHT22;37205;51.434;6.756;2024-01-15T14:36:58;2.40;99.90
50804;DHT22;37205;51.434;6.756;2024-01-15T14:39:24;2.40;99.90
50804;DHT22;37205;51.434;6.756;2024-01-15T14:41:51;2.40;99.90
50804;DHT22;37205;51.434;6.756;2024-01-15T14:44:17;2.40;99.90
50804;DHT22;37205;51.434;6.756;2024-01-15T14:46:43;2.40;99.90
50804;DHT22;37205;51.434;6.756;2024-01-15T14:49:08;2.50;99.90
50804;DHT22;37205;51.434;6.756;2024-01-15T14:51:34;2.50;99.90
50804;DHT22;37205;51.434;6.756;2024-01-15T14:53:59;2.50;99.90
50804;DHT22;37205;51.434;6.756;2024-01-15T14:56:25;2.40;99.90
50804;DHT22;37205;51.434;6.756;2024-01-15T14:58:51;2.30;99.90
50804;DHT22;37205;51.434;6.756;2024-01-15T15:01:16;2.30;99.90
50804;DHT22;37205;51.434;6.756;2024-01-15T15:03:42;2.20;99.90
50804;DHT22;37205;51.434;6.756;2024-01-15T15:06:07;2.10;99.90
50804;DHT22;37205;51.434;6.756;2024-01-15T15:08:33;2.10;99.90
50804;DHT22;37205;51.434;6.756;2024-01-15T15:11:00;2.10;99.90
50804;DHT22;37205;51.434;6.756;2024-01-15T15:13:25;2.10;99.90
50804;DHT22;37205;51.434;6.756;2024-01-15T15:15:52;2.10;99.90
50804;DHT22;37205;51.434;6.756;2024-01-15T15:18:19;2.00;99.90
50804;DHT22;37205;51.434;6.756;2024-01-15T15:20:44;2.00;99.90
50804;DHT22;37205;51.434;6.756;2024-01-15T15:23:10;2.10;99.90
50804;DHT22;37205;51.434;6.756;2024-01-15T15:25:36;2.00;99.90
50804;DHT22;37205;51.434;6.756;2024-01-15T15:28:02;2.10;99.90
50804;DHT22;37205;51.434;6.756;2024-01-15T15:30:30;2.10;99.90
50804;DHT22;37205;51.434;6.756;2024-01-15T15:32:56;2.10;99.90
50804;DHT22;37205;51.434;6.756;2024-01-15T15:35:21;2.00;99.90
50804;DHT22;37205;51.434;6.756;2024-01-15T15:37:47;2.00;99.90
50804;DHT22;37205;51.434;6.756;2024-01-15T15:40:12;1.90;99.90
50804;DHT22;37205;51.434;6.756;2024-01-15T15:42:38;1.90;99.90
50804;DHT22;37205;51.434;6.756;2024-01-15T15:45:04;1.80;99.90